Time,TemperatureF,DewpointF,PressureIn,WindDirection,WindDirectionDegrees,WindSpeedMPH,WindSpeedGustMPH,Humidity,HourlyPrecipIn,Conditions,Clouds,dailyrainin,SoftwareType,DateUTC
2014-09-20 00:00:00,70.6,57.0,29.77,ESE,117,0.0,0.0,62,0.00,,,0.00,weatherlink.com 1.10,2014-09-20 07:00:00,
2014-09-20 00:15:00,69.7,57.0,29.77,ESE,117,0.0,1.0,65,0.00,,,0.00,weatherlink.com 1.10,2014-09-20 07:15:00,
2014-09-20 00:30:00,69.0,58.0,29.77,ESE,117,0.0,0.0,69,0.00,,,0.00,weatherlink.com 1.10,2014-09-20 07:30:00,
2014-09-20 00:45:00,68.2,58.0,29.77,ESE,117,0.0,1.0,71,0.00,,,0.00,weatherlink.com 1.10,2014-09-20 07:45:00,
2014-09-20 01:00:00,67.4,58.0,29.78,ESE,117,0.0,1.0,71,0.00,,,0.00,weatherlink.com 1.10,2014-09-20 08:00:00,
2014-09-20 01:15:00,66.8,57.0,29.78,ESE,117,0.0,0.0,72,0.00,,,0.00,weatherlink.com 1.10,2014-09-20 08:15:00,
2014-09-20 01:30:00,66.4,58.0,29.79,ESE,117,1.0,1.0,73,0.00,,,0.00,weatherlink.com 1.10,2014-09-20 08:30:00,
2014-09-20 01:45:00,66.1,58.0,29.79,ESE,117,0.0,0.0,74,0.00,,,0.00,weatherlink.com 1.10,2014-09-20 08:45:00,
2014-09-20 02:00:00,65.5,57.0,29.79,ESE,117,0.0,0.0,74,0.00,,,0.00,weatherlink.com 1.10,2014-09-20 09:00:00,
2014-09-20 02:15:00,64.9,57.0,29.80,ESE,117,0.0,1.0,76,0.00,,,0.00,weatherlink.com 1.10,2014-09-20 09:15:00,
2014-09-20 02:30:00,64.5,57.0,29.79,ESE,117,0.0,0.0,76,0.00,,,0.00,weatherlink.com 1.10,2014-09-20 09:30:00,
2014-09-20 02:45:00,64.0,57.0,29.80,ESE,117,0.0,1.0,77,0.00,,,0.00,weatherlink.com 1.10,2014-09-20 09:45:00,
2014-09-20 03:00:00,63.6,57.0,29.80,ESE,117,0.0,0.0,78,0.00,,,0.00,weatherlink.com 1.10,2014-09-20 10:00:00,
2014-09-20 03:15:00,63.1,57.0,29.79,ESE,117,0.0,0.0,79,0.00,,,0.00,weatherlink.com 1.10,2014-09-20 10:15:00,
2014-09-20 03:30:00,62.8,57.0,29.80,ESE,117,0.0,0.0,81,0.00,,,0.00,weatherlink.com 1.10,2014-09-20 10:30:00,
2014-09-20 03:45:00,62.5,57.0,29.80,ESE,117,0.0,0.0,83,0.00,,,0.00,weatherlink.com 1.10,2014-09-20 10:45:00,
2014-09-20 04:00:00,62.3,57.0,29.79,ESE,117,0.0,0.0,84,0.00,,,0.00,weatherlink.com 1.10,2014-09-20 11:00:00,
2014-09-20 04:15:00,62.3,58.0,29.79,ESE,117,0.0,0.0,85,0.00,,,0.00,weatherlink.com 1.10,2014-09-20 11:15:00,
2014-09-20 04:30:00,62.3,58.0,29.79,ESE,117,0.0,0.0,85,0.00,,,0.00,weatherlink.com 1.10,2014-09-20 11:30:00,
2014-09-20 04:45:00,62.2,57.0,29.79,ESE,117,0.0,0.0,84,0.00,,,0.00,weatherlink.com 1.10,2014-09-20 11:45:00,
2014-09-20 05:00:00,62.2,57.0,29.80,ESE,117,0.0,0.0,84,0.00,,,0.00,weatherlink.com 1.10,2014-09-20 12:00:00,
2014-09-20 05:15:00,62.0,57.0,29.80,ESE,117,0.0,0.0,84,0.00,,,0.00,weatherlink.com 1.10,2014-09-20 12:15:00,
2014-09-20 05:30:00,61.8,57.0,29.80,ESE,117,0.0,0.0,83,0.00,,,0.00,weatherlink.com 1.10,2014-09-20 12:30:00,
2014-09-20 05:45:00,61.5,56.0,29.80,ESE,117,0.0,0.0,82,0.00,,,0.00,weatherlink.com 1.10,2014-09-20 12:45:00,
2014-09-20 06:00:00,61.1,56.0,29.80,ESE,117,0.0,0.0,83,0.00,,,0.00,weatherlink.com 1.10,2014-09-20 13:00:00,
2014-09-20 06:15:00,60.7,56.0,29.80,ESE,117,0.0,0.0,84,0.00,,,0.00,weatherlink.com 1.10,2014-09-20 13:15:00,
2014-09-20 06:30:00,60.3,56.0,29.81,ESE,117,0.0,0.0,84,0.00,,,0.00,weatherlink.com 1.10,2014-09-20 13:30:00,
2014-09-20 06:45:00,59.9,55.0,29.81,ESE,117,0.0,0.0,84,0.00,,,0.00,weatherlink.com 1.10,2014-09-20 13:45:00,
2014-09-20 07:00:00,59.7,56.0,29.81,ESE,117,0.0,0.0,87,0.00,,,0.00,weatherlink.com 1.10,2014-09-20 14:00:00,
2014-09-20 07:16:00,59.5,56.0,29.82,ESE,117,0.0,0.0,88,0.00,,,0.00,weatherlink.com 1.10,2014-09-20 14:16:00,
2014-09-20 07:31:00,59.4,56.0,29.82,ESE,117,0.0,0.0,88,0.00,,,0.00,weatherlink.com 1.10,2014-09-20 14:31:00,
2014-09-20 07:46:00,59.5,56.0,29.82,ESE,117,0.0,0.0,89,0.00,,,0.00,weatherlink.com 1.10,2014-09-20 14:46:00,
2014-09-20 08:01:00,60.3,57.0,29.82,ESE,117,0.0,0.0,89,0.00,,,0.00,weatherlink.com 1.10,2014-09-20 15:01:00,
2014-09-20 08:16:00,61.6,58.0,29.82,ESE,117,0.0,0.0,88,0.00,,,0.00,weatherlink.com 1.10,2014-09-20 15:16:00,
2014-09-20 08:31:00,62.5,59.0,29.82,ESE,117,0.0,0.0,87,0.00,,,0.00,weatherlink.com 1.10,2014-09-20 15:31:00,
2014-09-20 08:46:00,64.2,58.0,29.82,ESE,117,0.0,0.0,81,0.00,,,0.00,weatherlink.com 1.10,2014-09-20 15:46:00,
2014-09-20 09:01:00,67.0,58.0,29.82,NNE,18,0.0,2.0,74,0.00,,,0.00,weatherlink.com 1.10,2014-09-20 16:01:00,
2014-09-20 09:16:00,70.1,59.0,29.82,North,11,1.0,2.0,68,0.00,,,0.00,weatherlink.com 1.10,2014-09-20 16:16:00,
2014-09-20 09:31:00,72.9,59.0,29.83,North,355,0.0,3.0,63,0.00,,,0.00,weatherlink.com 1.10,2014-09-20 16:31:00,
2014-09-20 09:46:00,74.6,61.0,29.82,WSW,254,1.0,3.0,62,0.00,,,0.00,weatherlink.com 1.10,2014-09-20 16:46:00,
2014-09-20 10:01:00,76.6,61.0,29.82,North,360,3.0,3.0,58,0.00,,,0.00,weatherlink.com 1.10,2014-09-20 17:01:00,
2014-09-20 10:16:00,78.1,61.0,29.83,North,9,0.0,3.0,55,0.00,,,0.00,weatherlink.com 1.10,2014-09-20 17:16:00,
2014-09-20 10:31:00,79.6,61.0,29.82,WSW,248,1.0,3.0,53,0.00,,,0.00,weatherlink.com 1.10,2014-09-20 17:31:00,
2014-09-20 10:46:00,80.7,61.0,29.82,NNW,342,0.0,4.0,51,0.00,,,0.00,weatherlink.com 1.10,2014-09-20 17:46:00,
2014-09-20 11:01:00,82.1,61.0,29.82,NNW,344,0.0,4.0,49,0.00,,,0.00,weatherlink.com 1.10,2014-09-20 18:01:00,
2014-09-20 11:16:00,83.3,62.0,29.81,West,271,1.0,2.0,49,0.00,,,0.00,weatherlink.com 1.10,2014-09-20 18:16:00,
2014-09-20 11:31:00,84.6,62.0,29.81,SW,225,0.0,2.0,47,0.00,,,0.00,weatherlink.com 1.10,2014-09-20 18:31:00,
2014-09-20 11:46:00,85.2,63.0,29.81,SW,225,2.0,3.0,48,0.00,,,0.00,weatherlink.com 1.10,2014-09-20 18:46:00,
2014-09-20 12:01:00,86.6,62.0,29.80,WNW,299,1.0,3.0,43,0.00,,,0.00,weatherlink.com 1.10,2014-09-20 19:01:00,
2014-09-20 12:16:00,86.6,62.0,29.80,NNW,334,0.0,4.0,43,0.00,,,0.00,weatherlink.com 1.10,2014-09-20 19:16:00,
2014-09-20 12:32:00,87.5,65.0,29.79,South,169,0.0,2.0,47,0.00,,,0.00,weatherlink.com 1.10,2014-09-20 19:32:00,
2014-09-20 12:47:00,88.0,61.0,29.79,West,259,0.0,3.0,41,0.00,,,0.00,weatherlink.com 1.10,2014-09-20 19:47:00,
2014-09-20 13:02:00,88.0,64.0,29.79,WNW,282,1.0,4.0,45,0.00,,,0.00,weatherlink.com 1.10,2014-09-20 20:02:00,
2014-09-20 13:17:00,88.7,63.0,29.78,WSW,258,3.0,3.0,43,0.00,,,0.00,weatherlink.com 1.10,2014-09-20 20:17:00,
2014-09-20 13:32:00,88.4,63.0,29.78,ENE,68,0.0,9.0,43,0.00,,,0.00,weatherlink.com 1.10,2014-09-20 20:32:00,
2014-09-20 13:47:00,89.0,64.0,29.77,SW,233,2.0,2.0,44,0.00,,,0.00,weatherlink.com 1.10,2014-09-20 20:47:00,
2014-09-20 14:02:00,88.9,63.0,29.77,North,355,2.0,3.0,42,0.00,,,0.00,weatherlink.com 1.10,2014-09-20 21:02:00,
2014-09-20 14:17:00,88.7,62.0,29.77,SSW,202,4.0,6.0,41,0.00,,,0.00,weatherlink.com 1.10,2014-09-20 21:17:00,
2014-09-20 14:32:00,88.8,62.0,29.77,SE,136,0.0,3.0,40,0.00,,,0.00,weatherlink.com 1.10,2014-09-20 21:32:00,
2014-09-20 14:47:00,88.4,61.0,29.76,ENE,73,1.0,4.0,40,0.00,,,0.00,weatherlink.com 1.10,2014-09-20 21:47:00,
2014-09-20 15:02:00,88.8,62.0,29.75,South,177,1.0,3.0,40,0.00,,,0.00,weatherlink.com 1.10,2014-09-20 22:02:00,
2014-09-20 15:17:00,89.4,63.0,29.75,East,94,2.0,4.0,41,0.00,,,0.00,weatherlink.com 1.10,2014-09-20 22:17:00,
2014-09-20 15:32:00,89.2,62.0,29.75,SE,130,2.0,3.0,40,0.00,,,0.00,weatherlink.com 1.10,2014-09-20 22:32:00,
2014-09-20 15:47:00,89.2,63.0,29.75,ENE,77,1.0,4.0,41,0.00,,,0.00,weatherlink.com 1.10,2014-09-20 22:47:00,
2014-09-20 16:02:00,89.0,64.0,29.75,SE,134,0.0,3.0,43,0.00,,,0.00,weatherlink.com 1.10,2014-09-20 23:02:00,
2014-09-20 16:17:00,89.3,62.0,29.74,NW,309,2.0,3.0,40,0.00,,,0.00,weatherlink.com 1.10,2014-09-20 23:17:00,
2014-09-20 16:32:00,88.9,63.0,29.74,East,84,1.0,2.0,42,0.00,,,0.00,weatherlink.com 1.10,2014-09-20 23:32:00,
2014-09-20 16:47:00,88.4,62.0,29.73,ENE,76,1.0,3.0,41,0.00,,,0.00,weatherlink.com 1.10,2014-09-20 23:47:00,